Terminal Aerodrome Forecast
Issued by NWS Medford, OR

Home | Current Version | Previous Version | Text Only | Print | Product List | Glossary On
Versions: 1 2 3 4 5 6 7 8 9 10 11 12 13 14 15 16
000
FTUS46 KMFR 212340
TAFMFR
TAF
KMFR 212340Z 2200/2224 34007KT P6SM BKN060 OVC100
     FM221300 00000KT 2SM BR BKN003 BKN020
     FM221700 00000KT P6SM SCT008 SCT025
     FM222000 31005KT P6SM SCT200=

USA.gov is the U.S. government's official web portal to all federal, state and local government web resources and services.